createdAt,value
2019-02-24T00:01:02.045Z,103269.95
2019-02-24T00:03:31.815Z,103270.73
2019-02-24T00:06:01.735Z,103270.75
2019-02-24T00:08:31.855Z,103275.88
2019-02-24T00:11:01.860Z,103268.81
2019-02-24T00:13:31.584Z,103280.05
2019-02-24T00:16:01.439Z,103282.84
2019-02-24T00:18:31.276Z,103280.09
2019-02-24T00:21:01.033Z,103272.66
2019-02-24T00:23:30.944Z,103291.95
2019-02-24T00:26:00.800Z,103279.17
2019-02-24T00:28:30.673Z,103266.28
2019-02-24T00:31:00.483Z,103279.64
2019-02-24T00:33:30.344Z,103278.46
2019-02-24T00:36:00.033Z,103274.11
2019-02-24T00:38:29.731Z,103282.12
2019-02-24T00:41:00.836Z,103278.88
2019-02-24T00:43:30.806Z,103283.52
2019-02-24T00:46:00.903Z,103283.31
2019-02-24T00:48:31.250Z,103279.04
2019-02-24T00:51:01.345Z,103279.33
2019-02-24T00:53:32.406Z,103283.98
2019-02-24T00:56:02.205Z,103275.75
2019-02-24T00:58:31.997Z,103281.33
2019-02-24T01:01:01.954Z,103278.33
2019-02-24T01:03:31.773Z,103272.89
2019-02-24T01:06:01.710Z,103281.09
2019-02-24T01:08:31.510Z,103280.05
2019-02-24T01:11:01.403Z,103279.83
2019-02-24T01:13:31.366Z,103290.42
2019-02-24T01:16:01.051Z,103285.91
2019-02-24T01:18:30.850Z,103294.93
2019-02-24T01:21:00.703Z,103292.31
2019-02-24T01:23:30.650Z,103273.89
2019-02-24T01:26:00.515Z,103268.87
2019-02-24T01:28:30.304Z,103269.34
2019-02-24T01:31:00.052Z,103259.89
2019-02-24T01:33:29.828Z,103262.77
2019-02-24T01:35:59.744Z,103268.68
2019-02-24T01:38:29.424Z,103272.68
2019-02-24T01:40:59.193Z,103273.33
2019-02-24T01:43:28.899Z,103267.34
2019-02-24T01:45:59.669Z,103264.34
2019-02-24T01:48:29.441Z,103262.20
2019-02-24T01:50:59.257Z,103265.21
2019-02-24T01:53:29.235Z,103256.64
2019-02-24T01:55:59.009Z,103264.08
2019-02-24T01:58:34.796Z,103270.67
2019-02-24T02:01:00.303Z,103264.47
2019-02-24T02:03:30.055Z,103252.48
2019-02-24T02:05:59.790Z,103258.14
2019-02-24T02:08:29.739Z,103267.12
2019-02-24T02:10:59.832Z,103275.21
2019-02-24T02:13:29.936Z,103261.55
2019-02-24T02:15:59.801Z,103269.47
2019-02-24T02:18:29.662Z,103251.62
2019-02-24T02:21:00.015Z,103248.30
2019-02-24T02:23:29.754Z,103259.69
2019-02-24T02:25:59.529Z,103250.16
2019-02-24T02:28:29.606Z,103245.31
2019-02-24T02:30:59.353Z,103260.75
2019-02-24T02:33:29.610Z,103268.61
2019-02-24T02:35:59.497Z,103258.20
2019-02-24T02:38:29.204Z,103240.43
2019-02-24T02:40:59.042Z,103252.63
2019-02-24T02:43:28.952Z,103254.14
2019-02-24T02:45:58.899Z,103256.50
2019-02-24T02:48:28.801Z,103261.02
2019-02-24T02:50:58.584Z,103246.42
2019-02-24T02:53:28.341Z,103239.77
2019-02-24T02:55:58.105Z,103244.01
2019-02-24T02:58:27.926Z,103238.15
2019-02-24T03:00:58.187Z,103229.97
2019-02-24T03:03:27.964Z,103238.75
2019-02-24T03:06:22.622Z,103242.50
2019-02-24T03:08:53.209Z,103231.81
2019-02-24T03:11:23.306Z,103229.20
2019-02-24T03:13:53.182Z,103221.33
2019-02-24T03:16:26.208Z,103233.48
2019-02-24T03:18:56.031Z,103223.87
2019-02-24T03:21:26.980Z,103216.30
2019-02-24T03:23:56.890Z,103213.09
2019-02-24T03:26:26.706Z,103215.36
2019-02-24T03:29:03.869Z,103229.84
2019-02-24T03:31:28.094Z,103228.22
2019-02-24T03:33:58.187Z,103224.02
2019-02-24T03:36:28.064Z,103229.87
2019-02-24T03:38:57.724Z,103233.72
2019-02-24T03:41:27.539Z,103217.72
2019-02-24T03:43:57.312Z,103212.38
2019-02-24T03:46:27.062Z,103230.03
2019-02-24T03:48:56.772Z,103221.56
2019-02-24T03:51:26.608Z,103231.64
2019-02-24T03:53:56.685Z,103219.97
2019-02-24T03:56:26.646Z,103227.69
2019-02-24T03:58:56.447Z,103222.45
2019-02-24T04:01:26.612Z,103226.05
2019-02-24T04:03:56.676Z,103222.70
2019-02-24T04:06:26.505Z,103210.91
2019-02-24T04:08:56.470Z,103226.72
2019-02-24T04:11:26.338Z,103217.11
2019-02-24T04:13:56.150Z,103215.38
2019-02-24T04:16:26.036Z,103211.25
2019-02-24T04:18:55.999Z,103215.77
2019-02-24T04:21:25.787Z,103227.23
2019-02-24T04:23:55.457Z,103230.45
2019-02-24T04:26:25.127Z,103229.30
2019-02-24T04:28:54.933Z,103229.91
2019-02-24T04:31:24.802Z,103210.66
2019-02-24T04:33:54.454Z,103223.71
2019-02-24T04:36:24.318Z,103219.91
2019-02-24T04:38:54.200Z,103225.77
2019-02-24T04:41:24.123Z,103221.50
2019-02-24T04:43:54.052Z,103214.98
2019-02-24T04:46:23.895Z,103217.51
2019-02-24T04:48:53.649Z,103215.53
2019-02-24T04:51:23.514Z,103228.11
2019-02-24T04:53:53.300Z,103213.39
2019-02-24T04:56:23.088Z,103205.84
2019-02-24T04:58:53.004Z,103210.80
2019-02-24T05:01:22.834Z,103211.91
2019-02-24T05:03:52.730Z,103208.90
2019-02-24T05:06:22.677Z,103211.00
2019-02-24T05:08:52.466Z,103204.59
2019-02-24T05:11:22.308Z,103205.18
2019-02-24T05:13:52.159Z,103214.64
2019-02-24T05:16:21.910Z,103212.38
2019-02-24T05:18:51.619Z,103201.38
2019-02-24T05:21:21.593Z,103217.63
2019-02-24T05:23:51.458Z,103207.23
2019-02-24T05:26:21.340Z,103200.92
2019-02-24T05:28:51.101Z,103215.88
2019-02-24T05:31:20.830Z,103204.47
2019-02-24T05:33:50.666Z,103208.03
2019-02-24T05:36:20.430Z,103216.39
2019-02-24T05:38:50.664Z,103225.58
2019-02-24T05:41:20.527Z,103222.14
2019-02-24T05:43:50.394Z,103254.05
2019-02-24T05:46:20.309Z,103229.18
2019-02-24T05:48:50.240Z,103227.11
2019-02-24T05:51:20.131Z,103236.59
2019-02-24T05:53:49.991Z,103231.44
2019-02-24T05:56:19.764Z,103228.12
2019-02-24T05:58:49.559Z,103235.63
2019-02-24T06:01:20.060Z,103234.55
2019-02-24T06:03:49.921Z,103232.17
2019-02-24T06:06:20.141Z,103233.00
2019-02-24T06:08:51.085Z,103240.89
2019-02-24T06:11:20.917Z,103239.03
2019-02-24T06:13:52.150Z,103227.59
2019-02-24T06:16:23.309Z,103249.06
2019-02-24T06:18:53.137Z,103252.77
2019-02-24T06:21:23.132Z,103236.80
2019-02-24T06:23:52.985Z,103244.41
2019-02-24T06:26:22.858Z,103245.16
2019-02-24T06:28:52.771Z,103259.42
2019-02-24T06:31:22.529Z,103250.76
2019-02-24T06:33:52.339Z,103242.60
2019-02-24T06:36:22.166Z,103240.06
2019-02-24T06:38:52.036Z,103249.13
2019-02-24T06:41:21.843Z,103237.28
2019-02-24T06:43:52.906Z,103243.05
2019-02-24T06:46:23.013Z,103239.38
2019-02-24T06:48:52.959Z,103233.97
2019-02-24T06:51:22.955Z,103243.98
2019-02-24T06:53:52.747Z,103226.34
2019-02-24T06:56:22.601Z,103226.44
2019-02-24T06:58:53.735Z,103254.94
2019-02-24T07:01:23.654Z,103253.98
2019-02-24T07:03:54.609Z,103239.63
2019-02-24T07:06:24.464Z,103242.94
2019-02-24T07:08:54.211Z,103249.98
2019-02-24T07:11:23.931Z,103222.17
2019-02-24T07:13:53.673Z,103228.62
2019-02-24T07:16:23.441Z,103236.78
2019-02-24T07:18:53.258Z,103281.38
2019-02-24T07:21:23.600Z,103246.66
2019-02-24T07:23:53.751Z,103230.50
2019-02-24T07:26:23.636Z,103231.11
2019-02-24T07:28:53.501Z,103251.30
2019-02-24T07:31:23.260Z,103227.06
2019-02-24T07:33:53.065Z,103243.16
2019-02-24T07:36:23.017Z,103262.62
2019-02-24T07:38:52.697Z,103212.20
2019-02-24T07:41:22.565Z,103251.20
2019-02-24T07:43:52.544Z,103266.92
2019-02-24T07:46:22.523Z,103240.95
2019-02-24T07:48:52.266Z,103274.27
2019-02-24T07:51:22.288Z,103208.34
2019-02-24T07:53:53.555Z,103242.05
2019-02-24T07:56:23.330Z,103251.00
2019-02-24T07:58:53.142Z,103243.46
2019-02-24T08:01:22.891Z,103299.83
2019-02-24T08:03:52.954Z,103227.01
2019-02-24T08:06:22.706Z,103254.73
2019-02-24T08:08:52.578Z,103249.64
2019-02-24T08:11:22.324Z,103238.85
2019-02-24T08:13:52.155Z,103274.30
2019-02-24T08:16:23.527Z,103254.58
2019-02-24T08:18:53.648Z,103252.45
2019-02-24T08:21:23.665Z,103236.48
2019-02-24T08:23:53.600Z,103260.86
2019-02-24T08:26:23.405Z,103275.73
2019-02-24T08:28:53.398Z,103263.23
2019-02-24T08:31:23.189Z,103288.53
2019-02-24T08:33:53.063Z,103282.67
2019-02-24T08:36:22.806Z,103314.91
2019-02-24T08:38:52.657Z,103238.86
2019-02-24T08:41:22.460Z,103268.64
2019-02-24T08:43:52.387Z,103282.80
2019-02-24T08:46:22.247Z,103231.72
2019-02-24T08:48:52.012Z,103281.03
2019-02-24T08:51:23.418Z,103273.03
2019-02-24T08:53:53.399Z,103239.81
2019-02-24T08:56:23.155Z,103237.18
2019-02-24T08:58:52.780Z,103190.67
2019-02-24T09:01:22.401Z,103229.98
2019-02-24T09:03:53.568Z,103270.36
2019-02-24T09:06:23.558Z,103239.45
2019-02-24T09:08:53.328Z,103249.89
2019-02-24T09:11:24.342Z,103259.17
2019-02-24T09:13:55.801Z,103259.98
2019-02-24T09:16:25.598Z,103277.19
2019-02-24T09:18:55.726Z,103268.62
2019-02-24T09:21:25.791Z,103235.49
2019-02-24T09:23:55.438Z,103272.09
2019-02-24T09:26:25.251Z,103257.13
2019-02-24T09:28:55.246Z,103235.72
2019-02-24T09:31:25.242Z,103252.34
2019-02-24T09:33:55.158Z,103254.99
2019-02-24T09:36:24.934Z,103185.44
2019-02-24T09:38:55.972Z,103246.72
2019-02-24T09:41:25.694Z,103228.91
2019-02-24T09:43:55.541Z,103236.44
2019-02-24T09:46:25.291Z,103234.69
2019-02-24T09:48:55.111Z,103225.88
2019-02-24T09:51:25.030Z,103244.77
2019-02-24T09:53:54.860Z,103196.97
2019-02-24T09:56:25.799Z,103242.22
2019-02-24T09:58:55.616Z,103219.16
2019-02-24T10:01:25.539Z,103238.75
2019-02-24T10:03:55.355Z,103288.89
2019-02-24T10:06:25.166Z,103246.28
2019-02-24T10:08:55.139Z,103191.53
2019-02-24T10:11:24.925Z,103242.12
2019-02-24T10:13:54.816Z,103238.52
2019-02-24T10:16:24.621Z,103227.98
2019-02-24T10:18:54.678Z,103225.91
2019-02-24T10:21:24.451Z,103259.11
2019-02-24T10:23:54.372Z,103222.63
2019-02-24T10:26:24.402Z,103189.52
2019-02-24T10:28:54.215Z,103160.98
2019-02-24T10:31:24.051Z,103203.18
2019-02-24T10:33:53.820Z,103227.85
2019-02-24T10:36:23.645Z,103179.23
2019-02-24T10:38:53.483Z,103207.32
2019-02-24T10:41:24.269Z,103209.29
2019-02-24T10:43:54.223Z,103205.80
2019-02-24T10:46:24.062Z,103144.09
2019-02-24T10:49:02.898Z,103189.47
2019-02-24T10:51:25.543Z,103211.09
2019-02-24T10:53:55.682Z,103184.59
2019-02-24T10:56:25.438Z,103200.97
2019-02-24T10:58:55.316Z,103184.53
2019-02-24T11:01:29.620Z,103199.69
2019-02-24T11:03:56.975Z,103166.89
2019-02-24T11:06:26.842Z,103167.84
2019-02-24T11:08:56.635Z,103188.20
2019-02-24T11:11:26.523Z,103134.30
2019-02-24T11:13:56.399Z,103175.54
2019-02-24T11:16:26.190Z,103171.25
2019-02-24T11:18:56.078Z,103167.89
2019-02-24T11:21:25.819Z,103191.98
2019-02-24T11:23:55.690Z,103181.19
2019-02-24T11:26:25.954Z,103200.97
2019-02-24T11:28:55.875Z,103201.45
2019-02-24T11:31:25.973Z,103201.34
2019-02-24T11:33:55.623Z,103176.14
2019-02-24T11:36:25.377Z,103152.75
2019-02-24T11:38:55.178Z,103158.70
2019-02-24T11:41:24.938Z,103151.41
2019-02-24T11:43:54.828Z,103141.14
2019-02-24T11:46:24.898Z,103166.36
2019-02-24T11:48:54.738Z,103150.72
2019-02-24T11:51:24.510Z,103166.97
2019-02-24T11:53:54.422Z,103155.22
2019-02-24T11:56:24.093Z,103153.15
2019-02-24T11:58:53.954Z,103149.38
2019-02-24T12:01:23.788Z,103177.70
2019-02-24T12:03:53.697Z,103152.83
2019-02-24T12:06:23.707Z,103141.13
2019-02-24T12:08:53.513Z,103156.08
2019-02-24T12:11:23.271Z,103117.73
2019-02-24T12:13:53.161Z,103118.36
2019-02-24T12:16:24.303Z,103151.73
2019-02-24T12:18:54.106Z,103134.20
2019-02-24T12:21:23.911Z,103135.83
2019-02-24T12:23:53.571Z,103170.54
2019-02-24T12:26:23.336Z,103152.71
2019-02-24T12:28:54.478Z,103150.50
2019-02-24T12:31:24.293Z,103126.56
2019-02-24T12:33:54.014Z,103148.42
2019-02-24T12:36:23.918Z,103152.30
2019-02-24T12:38:53.937Z,103150.84
2019-02-24T12:41:23.766Z,103129.13
2019-02-24T12:43:53.626Z,103094.42
2019-02-24T12:46:23.313Z,103107.80
2019-02-24T12:48:54.127Z,103104.90
2019-02-24T12:51:23.895Z,103092.91
2019-02-24T12:53:53.572Z,103118.46
2019-02-24T12:56:23.389Z,103120.20
2019-02-24T12:58:54.665Z,103111.56
2019-02-24T13:01:24.340Z,103116.84
2019-02-24T13:03:54.053Z,103112.16
2019-02-24T13:06:23.915Z,103109.96
2019-02-24T13:08:53.670Z,103106.71
2019-02-24T13:11:23.579Z,103106.30
2019-02-24T13:13:54.758Z,103102.88
2019-02-24T13:16:24.564Z,103045.56
2019-02-24T13:18:54.463Z,103088.69
2019-02-24T13:21:25.615Z,103082.31
2019-02-24T13:23:55.730Z,103086.06
2019-02-24T13:26:25.568Z,103095.80
2019-02-24T13:28:56.509Z,103105.27
2019-02-24T13:31:26.619Z,103101.16
2019-02-24T13:33:56.329Z,103087.77
2019-02-24T13:36:26.177Z,103098.20
2019-02-24T13:38:55.983Z,103089.14
2019-02-24T13:41:25.779Z,103106.58
2019-02-24T13:43:57.141Z,103110.18
2019-02-24T13:46:27.048Z,103093.50
2019-02-24T13:48:56.843Z,103092.28
2019-02-24T13:51:28.833Z,103082.55
2019-02-24T13:53:58.630Z,103075.77
2019-02-24T13:56:28.562Z,103080.22
2019-02-24T13:58:59.655Z,103084.39
2019-02-24T14:01:29.612Z,103095.41
2019-02-24T14:03:59.531Z,103089.02
2019-02-24T14:06:29.403Z,103080.96
2019-02-24T14:08:59.043Z,103067.58
2019-02-24T14:11:28.973Z,103077.89
2019-02-24T14:13:58.935Z,103077.44
2019-02-24T14:16:28.711Z,103094.47
2019-02-24T14:18:58.533Z,103071.42
2019-02-24T14:21:28.413Z,103054.95
2019-02-24T14:23:58.145Z,103079.69
2019-02-24T14:26:28.380Z,103091.34
2019-02-24T14:28:58.359Z,103078.42
2019-02-24T14:31:28.126Z,103079.22
2019-02-24T14:33:57.929Z,103085.38
2019-02-24T14:36:27.745Z,103069.67
2019-02-24T14:38:57.809Z,103084.69
2019-02-24T14:41:27.557Z,103074.53
2019-02-24T14:43:57.386Z,103072.50
2019-02-24T14:46:27.246Z,103079.48
2019-02-24T14:48:57.236Z,103083.05
2019-02-24T14:51:27.667Z,103085.07
2019-02-24T14:53:57.704Z,103080.55
2019-02-24T14:56:27.386Z,103085.84
2019-02-24T14:58:57.096Z,103070.00
2019-02-24T15:01:28.242Z,103080.87
2019-02-24T15:03:57.937Z,103077.55
2019-02-24T15:06:27.749Z,103076.91
2019-02-24T15:08:58.939Z,103064.98
2019-02-24T15:11:28.918Z,103069.55
2019-02-24T15:13:58.818Z,103072.34
2019-02-24T15:16:28.690Z,103068.73
2019-02-24T15:18:58.567Z,103067.36
2019-02-24T15:21:28.490Z,103061.91
2019-02-24T15:23:58.376Z,103069.14
2019-02-24T15:26:29.350Z,103074.60
2019-02-24T15:28:59.297Z,103057.56
2019-02-24T15:31:29.183Z,103065.90
2019-02-24T15:33:59.092Z,103067.25
2019-02-24T15:36:30.182Z,103057.50
2019-02-24T15:39:00.255Z,103053.17
2019-02-24T15:41:30.160Z,103065.80
2019-02-24T15:43:59.994Z,103057.84
2019-02-24T15:46:29.713Z,103060.02
2019-02-24T15:48:59.751Z,103057.81
2019-02-24T15:51:29.924Z,103061.02
2019-02-24T15:54:03.175Z,103055.12
2019-02-24T15:56:32.940Z,103064.70
2019-02-24T15:59:02.787Z,103016.03
2019-02-24T16:01:32.536Z,103053.92
2019-02-24T16:04:02.413Z,103056.98
2019-02-24T16:06:37.215Z,103057.34
2019-02-24T16:09:05.302Z,103057.23
2019-02-24T16:11:35.024Z,103049.47
2019-02-24T16:14:05.043Z,103059.37
2019-02-24T16:16:35.039Z,103068.81
2019-02-24T16:19:05.089Z,103072.93
2019-02-24T16:21:34.910Z,103057.21
2019-02-24T16:24:04.750Z,103071.94
2019-02-24T16:26:34.391Z,103071.59
2019-02-24T16:29:04.321Z,103066.43
2019-02-24T16:31:35.596Z,103075.98
2019-02-24T16:34:05.384Z,103076.91
2019-02-24T16:36:35.115Z,103075.06
2019-02-24T16:39:06.407Z,103081.45
2019-02-24T16:41:36.165Z,103080.28
2019-02-24T16:44:05.993Z,103083.35
2019-02-24T16:46:36.533Z,103087.16
2019-02-24T16:49:06.441Z,103086.45
2019-02-24T16:51:36.410Z,103085.91
2019-02-24T16:54:07.319Z,103078.83
2019-02-24T16:56:37.139Z,103084.20
2019-02-24T16:59:06.905Z,103090.70
2019-02-24T17:01:36.759Z,103087.91
2019-02-24T17:04:06.826Z,103092.89
2019-02-24T17:06:36.651Z,103099.52
2019-02-24T17:09:06.613Z,103097.17
2019-02-24T17:11:36.594Z,103097.08
2019-02-24T17:14:06.523Z,103089.95
2019-02-24T17:16:36.362Z,103093.20
2019-02-24T17:19:06.362Z,103085.66
2019-02-24T17:21:36.063Z,103056.08
2019-02-24T17:24:06.015Z,103092.97
2019-02-24T17:26:35.890Z,103094.61
2019-02-24T17:29:05.795Z,103087.22
2019-02-24T17:31:35.771Z,103083.19
2019-02-24T17:34:05.853Z,103086.58
2019-02-24T17:36:35.671Z,103091.70
2019-02-24T17:39:06.790Z,103088.70
2019-02-24T17:41:37.660Z,103086.35
2019-02-24T17:44:07.497Z,103085.31
2019-02-24T17:46:37.266Z,103084.31
2019-02-24T17:49:07.227Z,103073.77
2019-02-24T17:51:37.052Z,103077.59
2019-02-24T17:54:06.839Z,103086.48
2019-02-24T17:56:36.673Z,103081.27
2019-02-24T17:59:06.549Z,103077.23
2019-02-24T18:01:36.414Z,103077.13
2019-02-24T18:04:06.176Z,103079.16
2019-02-24T18:06:36.085Z,103083.29
2019-02-24T18:09:05.973Z,103073.67
2019-02-24T18:11:35.715Z,103069.95
2019-02-24T18:14:05.536Z,103075.38
2019-02-24T18:16:35.385Z,103079.06
2019-02-24T18:19:05.430Z,103073.14
2019-02-24T18:21:35.373Z,103079.70
2019-02-24T18:24:05.380Z,103074.14
2019-02-24T18:26:35.243Z,103072.74
2019-02-24T18:29:05.182Z,103070.20
2019-02-24T18:31:35.057Z,103068.29
2019-02-24T18:34:04.890Z,103073.43
2019-02-24T18:36:34.764Z,103072.27
2019-02-24T18:39:05.615Z,103064.95
2019-02-24T18:41:35.554Z,103066.10
2019-02-24T18:44:05.242Z,103065.16
2019-02-24T18:46:35.480Z,103067.45
2019-02-24T18:49:05.344Z,103071.19
2019-02-24T18:51:35.207Z,103071.27
2019-02-24T18:54:06.259Z,103069.46
2019-02-24T18:56:36.113Z,103066.84
2019-02-24T18:59:06.144Z,103069.46
2019-02-24T19:01:35.889Z,103063.42
2019-02-24T19:04:05.804Z,103065.64
2019-02-24T19:06:39.093Z,103064.30
2019-02-24T19:09:07.389Z,103063.63
2019-02-24T19:11:37.212Z,103067.81
2019-02-24T19:14:08.458Z,103068.14
2019-02-24T19:16:38.256Z,103075.72
2019-02-24T19:19:08.070Z,103072.30
2019-02-24T19:21:39.050Z,103074.17
2019-02-24T19:24:08.938Z,103071.48
2019-02-24T19:26:38.763Z,103069.32
2019-02-24T19:29:08.720Z,103072.33
2019-02-24T19:31:38.489Z,103066.05
2019-02-24T19:34:08.301Z,103075.30
2019-02-24T19:36:38.152Z,103072.75
2019-02-24T19:39:09.898Z,103071.95
2019-02-24T19:41:39.695Z,103072.33
2019-02-24T19:44:10.730Z,103071.36
2019-02-24T19:46:42.253Z,103070.63
2019-02-24T19:49:12.104Z,103076.85
2019-02-24T19:51:41.971Z,103073.77
2019-02-24T19:54:11.716Z,103072.00
2019-02-24T19:56:41.673Z,103067.41
2019-02-24T19:59:11.483Z,103068.27
2019-02-24T20:01:41.260Z,103067.41
2019-02-24T20:04:15.974Z,103077.77
2019-02-24T20:06:42.735Z,103070.14
2019-02-24T20:09:12.505Z,103063.86
2019-02-24T20:11:42.378Z,103066.19
2019-02-24T20:14:12.292Z,103078.93
2019-02-24T20:16:42.246Z,103075.90
2019-02-24T20:19:12.131Z,103077.07
2019-02-24T20:21:41.932Z,103071.84
2019-02-24T20:24:11.793Z,103068.90
2019-02-24T20:26:41.652Z,103068.19
2019-02-24T20:29:11.689Z,103065.52
2019-02-24T20:31:41.605Z,103067.11
2019-02-24T20:34:11.580Z,103065.76
2019-02-24T20:36:41.429Z,103065.03
2019-02-24T20:39:11.445Z,103061.21
2019-02-24T20:41:41.488Z,103058.74
2019-02-24T20:44:11.276Z,103052.05
2019-02-24T20:46:41.120Z,103057.09
2019-02-24T20:49:10.932Z,103057.23
2019-02-24T20:51:40.972Z,103053.66
2019-02-24T20:54:10.739Z,103061.29
2019-02-24T20:56:41.682Z,103062.77
2019-02-24T20:59:12.963Z,103065.56
2019-02-24T21:01:42.753Z,103058.81
2019-02-24T21:04:12.564Z,103050.72
2019-02-24T21:06:42.402Z,103058.33
2019-02-24T21:09:12.301Z,103058.68
2019-02-24T21:11:42.015Z,103056.93
2019-02-24T21:14:12.016Z,103065.45
2019-02-24T21:16:41.971Z,103065.56
2019-02-24T21:19:11.854Z,103066.17
2019-02-24T21:21:41.812Z,103056.67
2019-02-24T21:24:11.588Z,103065.36
2019-02-24T21:26:41.832Z,103075.76
2019-02-24T21:29:11.977Z,103072.02
2019-02-24T21:31:43.111Z,103069.49
2019-02-24T21:34:12.795Z,103076.39
2019-02-24T21:36:42.548Z,103066.34
2019-02-24T21:39:12.305Z,103072.78
2019-02-24T21:41:42.130Z,103076.38
2019-02-24T21:44:14.374Z,103077.66
2019-02-24T21:46:44.106Z,103070.52
2019-02-24T21:49:13.982Z,103078.93
2019-02-24T21:51:43.634Z,103079.73
2019-02-24T21:54:13.439Z,103077.64
2019-02-24T21:56:43.199Z,103089.27
2019-02-24T21:59:12.903Z,103071.97
2019-02-24T22:01:42.736Z,103076.84
2019-02-24T22:04:12.615Z,103074.80
2019-02-24T22:06:42.476Z,103073.07
2019-02-24T22:09:12.856Z,103074.66
2019-02-24T22:11:42.895Z,103079.08
2019-02-24T22:14:12.753Z,103082.66
2019-02-24T22:16:42.601Z,103082.97
2019-02-24T22:19:12.364Z,103088.94
2019-02-24T22:21:42.117Z,103082.97
2019-02-24T22:24:11.944Z,103081.91
2019-02-24T22:26:41.823Z,103084.17
2019-02-24T22:29:11.678Z,103080.59
2019-02-24T22:31:41.707Z,103084.39
2019-02-24T22:34:11.524Z,103082.36
2019-02-24T22:36:41.455Z,103081.55
2019-02-24T22:39:11.659Z,103080.23
2019-02-24T22:41:41.471Z,103084.84
2019-02-24T22:44:11.311Z,103084.59
2019-02-24T22:46:40.984Z,103090.03
2019-02-24T22:49:12.151Z,103098.27
2019-02-24T22:51:41.846Z,103086.36
2019-02-24T22:54:11.546Z,103089.14
2019-02-24T22:56:42.531Z,103086.27
2019-02-24T22:59:12.220Z,103089.70
2019-02-24T23:01:42.941Z,103091.50
2019-02-24T23:04:13.857Z,103082.78
2019-02-24T23:06:43.704Z,103087.69
2019-02-24T23:09:19.050Z,103084.53
2019-02-24T23:11:49.081Z,103081.93
2019-02-24T23:14:19.184Z,103064.24
2019-02-24T23:16:49.082Z,103075.34
2019-02-24T23:19:18.825Z,103059.55
2019-02-24T23:21:48.615Z,103086.06
2019-02-24T23:24:18.286Z,103078.96
2019-02-24T23:26:48.055Z,103083.41
2019-02-24T23:29:17.768Z,103077.89
2019-02-24T23:31:47.523Z,103078.82
2019-02-24T23:34:17.386Z,103087.20
2019-02-24T23:36:47.109Z,103082.19
2019-02-24T23:39:18.217Z,103085.58
2019-02-24T23:41:48.461Z,103085.03
2019-02-24T23:44:18.283Z,103078.23
2019-02-24T23:46:48.243Z,103079.10
2019-02-24T23:49:18.113Z,103082.48
2019-02-24T23:51:47.848Z,103081.64
2019-02-24T23:54:17.666Z,103085.03
2019-02-24T23:56:47.564Z,103096.48
2019-02-24T23:59:17.346Z,103094.77
